sensor_id;sensor_type;location;lat;lon;timestamp;pressure;altitude;pressure_sealevel;temperature;humidity
19672;BME280;9983;51.114;13.788;2023-11-21T00:02:54;98688.53;;;9.60;100.00
19672;BME280;9983;51.114;13.788;2023-11-21T00:07:55;98686.50;;;9.62;100.00
19672;BME280;9983;51.114;13.788;2023-11-21T00:12:55;98678.66;;;9.61;100.00
19672;BME280;9983;51.114;13.788;2023-11-21T00:17:55;98685.97;;;9.52;100.00
19672;BME280;9983;51.114;13.788;2023-11-21T00:22:55;98683.72;;;9.70;100.00
19672;BME280;9983;51.114;13.788;2023-11-21T00:27:56;98676.47;;;9.49;100.00
19672;BME280;9983;51.114;13.788;2023-11-21T00:32:56;98688.97;;;9.78;100.00
19672;BME280;9983;51.114;13.788;2023-11-21T00:37:56;98691.47;;;9.65;100.00
19672;BME280;9983;51.114;13.788;2023-11-21T00:42:58;98692.66;;;9.77;100.00
19672;BME280;9983;51.114;13.788;2023-11-21T00:47:58;98694.81;;;9.67;100.00
19672;BME280;9983;51.114;13.788;2023-11-21T00:52:58;98691.63;;;9.78;100.00
19672;BME280;9983;51.114;13.788;2023-11-21T00:57:59;98701.59;;;9.84;100.00
19672;BME280;9983;51.114;13.788;2023-11-21T01:02:59;98699.31;;;10.03;100.00
19672;BME280;9983;51.114;13.788;2023-11-21T01:08:00;98707.38;;;9.52;100.00
19672;BME280;9983;51.114;13.788;2023-11-21T01:13:00;98710.53;;;9.92;100.00
19672;BME280;9983;51.114;13.788;2023-11-21T01:18:00;98709.56;;;9.63;100.00
19672;BME280;9983;51.114;13.788;2023-11-21T01:23:01;98715.22;;;9.89;100.00
19672;BME280;9983;51.114;13.788;2023-11-21T01:28:01;98717.06;;;10.04;100.00
19672;BME280;9983;51.114;13.788;2023-11-21T01:33:01;98717.66;;;9.84;100.00
19672;BME280;9983;51.114;13.788;2023-11-21T01:38:01;98715.88;;;9.92;100.00
19672;BME280;9983;51.114;13.788;2023-11-21T01:43:02;98717.94;;;10.11;100.00
19672;BME280;9983;51.114;13.788;2023-11-21T01:48:05;98716.22;;;9.67;100.00
19672;BME280;9983;51.114;13.788;2023-11-21T01:53:06;98714.31;;;9.82;100.00
19672;BME280;9983;51.114;13.788;2023-11-21T01:58:08;98715.19;;;10.19;100.00
19672;BME280;9983;51.114;13.788;2023-11-21T02:03:09;98714.25;;;10.12;100.00
19672;BME280;9983;51.114;13.788;2023-11-21T02:08:10;98718.03;;;10.17;100.00
19672;BME280;9983;51.114;13.788;2023-11-21T02:13:11;98714.50;;;9.96;100.00
19672;BME280;9983;51.114;13.788;2023-11-21T02:18:11;98730.84;;;9.86;100.00
19672;BME280;9983;51.114;13.788;2023-11-21T02:23:12;98725.56;;;9.93;100.00
19672;BME280;9983;51.114;13.788;2023-11-21T02:28:13;98725.88;;;10.19;100.00
19672;BME280;9983;51.114;13.788;2023-11-21T02:33:15;98728.25;;;10.14;100.00
19672;BME280;9983;51.114;13.788;2023-11-21T02:38:15;98724.56;;;10.15;100.00
19672;BME280;9983;51.114;13.788;2023-11-21T02:43:16;98725.56;;;9.93;100.00
19672;BME280;9983;51.114;13.788;2023-11-21T02:48:16;98732.94;;;9.90;100.00
19672;BME280;9983;51.114;13.788;2023-11-21T02:53:16;98733.81;;;10.27;100.00
19672;BME280;9983;51.114;13.788;2023-11-21T02:58:17;98729.19;;;10.21;100.00
19672;BME280;9983;51.114;13.788;2023-11-21T03:03:17;98739.22;;;9.98;100.00
19672;BME280;9983;51.114;13.788;2023-11-21T03:08:18;98737.88;;;10.23;100.00
19672;BME280;9983;51.114;13.788;2023-11-21T03:13:25;98742.66;;;9.92;100.00
19672;BME280;9983;51.114;13.788;2023-11-21T03:18:25;98741.47;;;9.79;100.00
19672;BME280;9983;51.114;13.788;2023-11-21T03:23:26;98747.75;;;9.86;100.00
19672;BME280;9983;51.114;13.788;2023-11-21T03:28:26;98746.00;;;10.15;100.00
19672;BME280;9983;51.114;13.788;2023-11-21T03:33:30;98749.97;;;10.04;100.00
19672;BME280;9983;51.114;13.788;2023-11-21T03:38:30;98752.69;;;9.89;100.00
19672;BME280;9983;51.114;13.788;2023-11-21T03:43:30;98758.81;;;9.83;100.00
19672;BME280;9983;51.114;13.788;2023-11-21T03:48:30;98753.53;;;9.90;100.00
19672;BME280;9983;51.114;13.788;2023-11-21T03:53:33;98758.28;;;9.73;100.00
19672;BME280;9983;51.114;13.788;2023-11-21T03:58:33;98759.56;;;9.77;100.00
19672;BME280;9983;51.114;13.788;2023-11-21T04:03:34;98757.72;;;9.63;100.00
19672;BME280;9983;51.114;13.788;2023-11-21T04:08:34;98758.31;;;9.44;100.00
19672;BME280;9983;51.114;13.788;2023-11-21T04:13:34;98757.72;;;9.63;100.00
19672;BME280;9983;51.114;13.788;2023-11-21T04:18:36;98762.09;;;9.49;100.00
19672;BME280;9983;51.114;13.788;2023-11-21T04:23:36;98761.72;;;9.52;100.00
19672;BME280;9983;51.114;13.788;2023-11-21T04:28:37;98767.25;;;9.51;100.00
19672;BME280;9983;51.114;13.788;2023-11-21T04:33:37;98770.28;;;9.77;100.00
19672;BME280;9983;51.114;13.788;2023-11-21T04:38:37;98779.59;;;9.81;100.00
19672;BME280;9983;51.114;13.788;2023-11-21T04:43:37;98783.22;;;9.59;100.00
19672;BME280;9983;51.114;13.788;2023-11-21T04:48:38;98785.22;;;9.86;100.00
19672;BME280;9983;51.114;13.788;2023-11-21T04:53:38;98793.88;;;9.88;100.00
19672;BME280;9983;51.114;13.788;2023-11-21T04:58:39;98795.31;;;9.70;100.00
19672;BME280;9983;51.114;13.788;2023-11-21T05:03:40;98796.41;;;9.61;100.00
19672;BME280;9983;51.114;13.788;2023-11-21T05:08:40;98794.66;;;9.53;100.00
19672;BME280;9983;51.114;13.788;2023-11-21T05:13:40;98800.16;;;9.81;100.00
19672;BME280;9983;51.114;13.788;2023-11-21T05:18:41;98806.44;;;9.73;100.00
19672;BME280;9983;51.114;13.788;2023-11-21T05:23:41;98808.03;;;9.68;100.00
19672;BME280;9983;51.114;13.788;2023-11-21T05:28:41;98819.47;;;9.76;100.00
19672;BME280;9983;51.114;13.788;2023-11-21T05:33:42;98831.38;;;9.59;100.00
19672;BME280;9983;51.114;13.788;2023-11-21T05:38:42;98825.00;;;9.75;100.00
19672;BME280;9983;51.114;13.788;2023-11-21T05:43:43;98819.16;;;10.01;100.00
19672;BME280;9983;51.114;13.788;2023-11-21T05:48:43;98824.53;;;10.01;100.00
19672;BME280;9983;51.114;13.788;2023-11-21T05:53:45;98826.94;;;9.96;100.00
19672;BME280;9983;51.114;13.788;2023-11-21T05:58:45;98824.34;;;9.87;100.00
19672;BME280;9983;51.114;13.788;2023-11-21T06:03:46;98830.16;;;9.91;100.00
19672;BME280;9983;51.114;13.788;2023-11-21T06:08:46;98835.69;;;9.89;100.00
19672;BME280;9983;51.114;13.788;2023-11-21T06:13:46;98837.34;;;10.05;100.00
19672;BME280;9983;51.114;13.788;2023-11-21T06:18:48;98846.31;;;9.98;100.00
19672;BME280;9983;51.114;13.788;2023-11-21T06:23:48;98850.47;;;9.41;100.00
19672;BME280;9983;51.114;13.788;2023-11-21T06:28:48;98858.72;;;9.69;100.00
19672;BME280;9983;51.114;13.788;2023-11-21T06:33:51;98860.81;;;9.44;100.00
19672;BME280;9983;51.114;13.788;2023-11-21T06:38:52;98867.84;;;9.60;100.00
19672;BME280;9983;51.114;13.788;2023-11-21T06:43:52;98875.22;;;9.73;100.00
19672;BME280;9983;51.114;13.788;2023-11-21T06:48:53;98875.66;;;9.47;100.00
19672;BME280;9983;51.114;13.788;2023-11-21T06:53:53;98873.63;;;9.64;100.00
19672;BME280;9983;51.114;13.788;2023-11-21T06:58:53;98875.38;;;9.57;100.00
19672;BME280;9983;51.114;13.788;2023-11-21T07:03:54;98876.53;;;9.62;100.00
19672;BME280;9983;51.114;13.788;2023-11-21T07:08:54;98882.53;;;9.94;100.00
19672;BME280;9983;51.114;13.788;2023-11-21T07:13:54;98886.66;;;9.52;100.00
19672;BME280;9983;51.114;13.788;2023-11-21T07:18:54;98887.13;;;9.70;100.00
19672;BME280;9983;51.114;13.788;2023-11-21T07:23:55;98897.47;;;10.03;100.00
19672;BME280;9983;51.114;13.788;2023-11-21T07:28:55;98901.16;;;9.72;100.00
19672;BME280;9983;51.114;13.788;2023-11-21T07:33:58;98900.06;;;10.11;100.00
19672;BME280;9983;51.114;13.788;2023-11-21T07:38:58;98898.22;;;10.26;100.00
19672;BME280;9983;51.114;13.788;2023-11-21T07:43:59;98908.72;;;10.13;100.00
19672;BME280;9983;51.114;13.788;2023-11-21T07:48:59;98912.25;;;9.69;100.00
19672;BME280;9983;51.114;13.788;2023-11-21T07:53:59;98924.44;;;9.86;100.00
19672;BME280;9983;51.114;13.788;2023-11-21T07:59:00;98923.44;;;9.50;100.00
19672;BME280;9983;51.114;13.788;2023-11-21T08:04:01;98917.41;;;9.85;100.00
19672;BME280;9983;51.114;13.788;2023-11-21T08:09:03;98929.53;;;9.44;100.00
19672;BME280;9983;51.114;13.788;2023-11-21T08:14:04;98931.75;;;9.55;100.00
19672;BME280;9983;51.114;13.788;2023-11-21T08:19:05;98936.16;;;9.48;100.00
19672;BME280;9983;51.114;13.788;2023-11-21T08:24:06;98935.06;;;9.95;100.00
19672;BME280;9983;51.114;13.788;2023-11-21T08:29:10;98943.22;;;9.26;100.00
19672;BME280;9983;51.114;13.788;2023-11-21T08:34:12;98939.66;;;9.34;100.00
19672;BME280;9983;51.114;13.788;2023-11-21T08:39:12;98935.09;;;9.57;100.00
19672;BME280;9983;51.114;13.788;2023-11-21T08:44:13;98936.91;;;9.42;100.00
19672;BME280;9983;51.114;13.788;2023-11-21T08:49:13;98940.25;;;9.44;100.00
19672;BME280;9983;51.114;13.788;2023-11-21T08:54:15;98941.91;;;9.45;100.00
19672;BME280;9983;51.114;13.788;2023-11-21T08:59:15;98940.59;;;9.41;100.00
19672;BME280;9983;51.114;13.788;2023-11-21T09:04:16;98946.28;;;9.38;100.00
19672;BME280;9983;51.114;13.788;2023-11-21T09:09:16;98968.81;;;9.81;100.00
19672;BME280;9983;51.114;13.788;2023-11-21T09:14:17;98969.06;;;9.71;100.00
19672;BME280;9983;51.114;13.788;2023-11-21T09:19:18;98964.09;;;9.68;100.00
19672;BME280;9983;51.114;13.788;2023-11-21T09:24:18;98972.88;;;9.62;100.00
19672;BME280;9983;51.114;13.788;2023-11-21T09:29:18;98989.28;;;9.59;100.00
19672;BME280;9983;51.114;13.788;2023-11-21T09:34:18;98980.19;;;9.45;100.00
19672;BME280;9983;51.114;13.788;2023-11-21T09:39:19;98998.38;;;9.27;100.00
19672;BME280;9983;51.114;13.788;2023-11-21T09:44:24;99013.94;;;9.46;100.00
19672;BME280;9983;51.114;13.788;2023-11-21T09:49:28;99019.63;;;9.21;100.00
19672;BME280;9983;51.114;13.788;2023-11-21T09:54:30;99034.91;;;8.81;100.00
19672;BME280;9983;51.114;13.788;2023-11-21T09:59:31;99027.63;;;8.67;100.00
19672;BME280;9983;51.114;13.788;2023-11-21T10:04:33;99031.84;;;8.92;100.00
19672;BME280;9983;51.114;13.788;2023-11-21T10:09:33;99036.72;;;8.50;100.00
19672;BME280;9983;51.114;13.788;2023-11-21T10:14:36;99035.69;;;8.59;100.00
19672;BME280;9983;51.114;13.788;2023-11-21T10:19:38;99046.75;;;8.40;100.00
19672;BME280;9983;51.114;13.788;2023-11-21T10:24:39;99058.59;;;8.29;100.00
19672;BME280;9983;51.114;13.788;2023-11-21T10:29:39;99062.06;;;8.62;100.00
19672;BME280;9983;51.114;13.788;2023-11-21T10:34:39;99064.06;;;8.60;100.00
19672;BME280;9983;51.114;13.788;2023-11-21T10:39:41;99078.81;;;8.23;100.00
19672;BME280;9983;51.114;13.788;2023-11-21T10:44:45;99080.69;;;7.82;100.00
19672;BME280;9983;51.114;13.788;2023-11-21T10:49:48;99080.81;;;8.37;100.00
19672;BME280;9983;51.114;13.788;2023-11-21T10:54:49;99085.50;;;8.27;100.00
19672;BME280;9983;51.114;13.788;2023-11-21T10:59:49;99087.47;;;8.50;100.00
19672;BME280;9983;51.114;13.788;2023-11-21T11:04:50;99090.47;;;8.30;100.00
19672;BME280;9983;51.114;13.788;2023-11-21T11:09:53;99097.53;;;8.31;100.00
19672;BME280;9983;51.114;13.788;2023-11-21T11:14:55;99098.88;;;8.35;100.00
19672;BME280;9983;51.114;13.788;2023-11-21T11:19:55;99110.88;;;7.91;100.00
19672;BME280;9983;51.114;13.788;2023-11-21T11:36:02;99121.53;;;8.23;100.00
19672;BME280;9983;51.114;13.788;2023-11-21T11:41:07;99128.53;;;8.24;100.00
19672;BME280;9983;51.114;13.788;2023-11-21T11:46:10;99124.06;;;8.09;100.00
19672;BME280;9983;51.114;13.788;2023-11-21T11:51:12;99126.88;;;7.99;100.00
19672;BME280;9983;51.114;13.788;2023-11-21T11:56:27;99136.06;;;8.05;100.00
19672;BME280;9983;51.114;13.788;2023-11-21T12:01:29;99138.25;;;8.01;100.00
19672;BME280;9983;51.114;13.788;2023-11-21T12:06:33;99141.88;;;7.68;100.00
19672;BME280;9983;51.114;13.788;2023-11-21T12:11:36;99146.72;;;7.80;100.00
19672;BME280;9983;51.114;13.788;2023-11-21T12:16:36;99147.22;;;7.68;100.00
19672;BME280;9983;51.114;13.788;2023-11-21T12:21:37;99154.88;;;7.79;100.00
19672;BME280;9983;51.114;13.788;2023-11-21T12:26:42;99161.25;;;7.70;100.00
19672;BME280;9983;51.114;13.788;2023-11-21T12:31:44;99175.25;;;7.88;100.00
19672;BME280;9983;51.114;13.788;2023-11-21T12:36:46;99179.22;;;7.59;100.00
19672;BME280;9983;51.114;13.788;2023-11-21T12:41:47;99179.88;;;7.61;100.00
19672;BME280;9983;51.114;13.788;2023-11-21T12:46:47;99181.91;;;7.68;100.00
19672;BME280;9983;51.114;13.788;2023-11-21T12:51:47;99190.31;;;7.39;100.00
19672;BME280;9983;51.114;13.788;2023-11-21T12:56:49;99199.81;;;7.41;100.00
19672;BME280;9983;51.114;13.788;2023-11-21T13:01:49;99209.53;;;7.50;100.00
19672;BME280;9983;51.114;13.788;2023-11-21T13:06:51;99219.72;;;7.63;100.00
19672;BME280;9983;51.114;13.788;2023-11-21T13:11:59;99225.53;;;7.50;100.00
19672;BME280;9983;51.114;13.788;2023-11-21T13:16:59;99235.38;;;7.16;100.00
19672;BME280;9983;51.114;13.788;2023-11-21T13:22:00;99239.38;;;7.20;100.00
19672;BME280;9983;51.114;13.788;2023-11-21T13:27:03;99246.19;;;7.14;100.00
19672;BME280;9983;51.114;13.788;2023-11-21T13:32:04;99243.25;;;7.26;100.00
19672;BME280;9983;51.114;13.788;2023-11-21T13:37:06;99249.00;;;7.13;100.00
19672;BME280;9983;51.114;13.788;2023-11-21T13:42:07;99265.97;;;7.04;100.00
19672;BME280;9983;51.114;13.788;2023-11-21T13:47:08;99273.19;;;6.85;100.00
19672;BME280;9983;51.114;13.788;2023-11-21T13:52:08;99280.47;;;6.58;100.00
19672;BME280;9983;51.114;13.788;2023-11-21T13:57:11;99275.16;;;6.83;100.00
19672;BME280;9983;51.114;13.788;2023-11-21T14:02:11;99283.63;;;6.61;100.00
19672;BME280;9983;51.114;13.788;2023-11-21T14:07:18;99289.06;;;6.69;100.00
19672;BME280;9983;51.114;13.788;2023-11-21T14:12:35;99296.56;;;6.74;100.00
19672;BME280;9983;51.114;13.788;2023-11-21T14:17:39;99309.28;;;6.62;100.00
19672;BME280;9983;51.114;13.788;2023-11-21T14:22:41;99314.75;;;6.78;100.00
19672;BME280;9983;51.114;13.788;2023-11-21T14:27:41;99313.47;;;6.65;100.00
19672;BME280;9983;51.114;13.788;2023-11-21T14:32:42;99319.84;;;6.72;100.00
19672;BME280;9983;51.114;13.788;2023-11-21T14:37:43;99313.88;;;6.52;100.00
19672;BME280;9983;51.114;13.788;2023-11-21T14:42:43;99333.94;;;6.29;100.00
19672;BME280;9983;51.114;13.788;2023-11-21T14:47:47;99334.38;;;6.06;100.00
19672;BME280;9983;51.114;13.788;2023-11-21T14:53:02;99356.84;;;5.94;100.00
19672;BME280;9983;51.114;13.788;2023-11-21T14:58:06;99355.63;;;5.79;100.00
19672;BME280;9983;51.114;13.788;2023-11-21T15:03:11;99359.63;;;6.02;100.00
19672;BME280;9983;51.114;13.788;2023-11-21T15:08:26;99376.97;;;6.06;100.00
19672;BME280;9983;51.114;13.788;2023-11-21T15:13:31;99372.09;;;6.20;100.00
19672;BME280;9983;51.114;13.788;2023-11-21T15:18:32;99359.81;;;5.91;100.00
19672;BME280;9983;51.114;13.788;2023-11-21T15:23:32;99365.53;;;5.96;100.00
19672;BME280;9983;51.114;13.788;2023-11-21T15:28:35;99362.91;;;6.14;100.00
19672;BME280;9983;51.114;13.788;2023-11-21T15:33:35;99377.56;;;6.00;100.00
19672;BME280;9983;51.114;13.788;2023-11-21T15:38:36;99382.88;;;6.00;100.00
19672;BME280;9983;51.114;13.788;2023-11-21T15:43:40;99400.94;;;5.60;100.00
19672;BME280;9983;51.114;13.788;2023-11-21T15:48:40;99407.34;;;5.67;100.00
19672;BME280;9983;51.114;13.788;2023-11-21T15:53:43;99410.44;;;5.62;100.00
19672;BME280;9983;51.114;13.788;2023-11-21T15:58:44;99421.38;;;5.69;100.00
19672;BME280;9983;51.114;13.788;2023-11-21T16:03:45;99422.72;;;5.73;100.00
19672;BME280;9983;51.114;13.788;2023-11-21T16:08:48;99433.38;;;5.73;100.00
19672;BME280;9983;51.114;13.788;2023-11-21T16:13:48;99439.66;;;6.19;100.00
19672;BME280;9983;51.114;13.788;2023-11-21T16:18:48;99439.19;;;5.86;100.00
19672;BME280;9983;51.114;13.788;2023-11-21T16:23:49;99446.22;;;5.78;100.00
19672;BME280;9983;51.114;13.788;2023-11-21T16:28:49;99465.97;;;6.22;100.00
19672;BME280;9983;51.114;13.788;2023-11-21T16:33:49;99473.84;;;5.67;100.00
19672;BME280;9983;51.114;13.788;2023-11-21T16:38:50;99484.97;;;5.24;100.00
19672;BME280;9983;51.114;13.788;2023-11-21T16:43:50;99488.03;;;5.39;100.00
19672;BME280;9983;51.114;13.788;2023-11-21T16:48:50;99504.13;;;5.27;100.00
19672;BME280;9983;51.114;13.788;2023-11-21T16:53:51;99503.97;;;5.48;100.00
19672;BME280;9983;51.114;13.788;2023-11-21T16:58:51;99510.97;;;5.59;100.00
19672;BME280;9983;51.114;13.788;2023-11-21T17:03:52;99506.47;;;5.69;100.00
19672;BME280;9983;51.114;13.788;2023-11-21T17:08:53;99518.25;;;5.57;100.00
19672;BME280;9983;51.114;13.788;2023-11-21T17:13:53;99519.59;;;5.80;100.00
19672;BME280;9983;51.114;13.788;2023-11-21T17:18:53;99542.31;;;5.65;100.00
19672;BME280;9983;51.114;13.788;2023-11-21T17:23:54;99539.50;;;5.66;100.00
19672;BME280;9983;51.114;13.788;2023-11-21T17:28:55;99547.34;;;5.68;100.00
19672;BME280;9983;51.114;13.788;2023-11-21T17:33:56;99556.72;;;5.72;100.00
19672;BME280;9983;51.114;13.788;2023-11-21T17:38:57;99551.25;;;5.64;100.00
19672;BME280;9983;51.114;13.788;2023-11-21T17:43:57;99565.00;;;5.50;100.00
19672;BME280;9983;51.114;13.788;2023-11-21T17:48:58;99561.63;;;5.67;100.00
19672;BME280;9983;51.114;13.788;2023-11-21T17:53:58;99577.59;;;5.67;100.00
19672;BME280;9983;51.114;13.788;2023-11-21T17:59:01;99590.75;;;5.59;100.00
19672;BME280;9983;51.114;13.788;2023-11-21T18:04:03;99584.59;;;5.58;100.00
19672;BME280;9983;51.114;13.788;2023-11-21T18:09:04;99593.94;;;5.53;100.00
19672;BME280;9983;51.114;13.788;2023-11-21T18:14:08;99592.69;;;5.76;100.00
19672;BME280;9983;51.114;13.788;2023-11-21T18:19:10;99599.41;;;5.61;100.00
19672;BME280;9983;51.114;13.788;2023-11-21T18:24:10;99619.28;;;5.38;100.00
19672;BME280;9983;51.114;13.788;2023-11-21T18:29:10;99618.41;;;5.27;100.00
19672;BME280;9983;51.114;13.788;2023-11-21T18:34:11;99634.69;;;5.44;100.00
19672;BME280;9983;51.114;13.788;2023-11-21T18:39:11;99650.09;;;5.50;100.00
19672;BME280;9983;51.114;13.788;2023-11-21T18:44:16;99657.34;;;5.48;100.00
19672;BME280;9983;51.114;13.788;2023-11-21T18:49:17;99666.41;;;5.26;100.00
19672;BME280;9983;51.114;13.788;2023-11-21T18:54:17;99672.44;;;5.38;100.00
19672;BME280;9983;51.114;13.788;2023-11-21T18:59:17;99672.44;;;5.38;100.00
19672;BME280;9983;51.114;13.788;2023-11-21T19:04:20;99674.94;;;5.29;100.00
19672;BME280;9983;51.114;13.788;2023-11-21T19:09:24;99679.88;;;5.44;100.00
19672;BME280;9983;51.114;13.788;2023-11-21T19:14:24;99680.25;;;5.29;100.00
19672;BME280;9983;51.114;13.788;2023-11-21T19:19:25;99683.88;;;5.19;100.00
19672;BME280;9983;51.114;13.788;2023-11-21T19:24:25;99692.25;;;5.14;100.00
19672;BME280;9983;51.114;13.788;2023-11-21T19:29:25;99700.31;;;5.03;100.00
19672;BME280;9983;51.114;13.788;2023-11-21T19:34:26;99708.56;;;5.00;100.00
19672;BME280;9983;51.114;13.788;2023-11-21T19:39:26;99720.19;;;4.99;100.00
19672;BME280;9983;51.114;13.788;2023-11-21T19:44:26;99729.69;;;5.02;100.00
19672;BME280;9983;51.114;13.788;2023-11-21T19:49:28;99736.50;;;4.94;100.00
19672;BME280;9983;51.114;13.788;2023-11-21T19:54:28;99740.03;;;5.05;100.00
19672;BME280;9983;51.114;13.788;2023-11-21T19:59:30;99759.47;;;4.75;100.00
19672;BME280;9983;51.114;13.788;2023-11-21T20:04:30;99763.72;;;4.87;100.00
19672;BME280;9983;51.114;13.788;2023-11-21T20:09:30;99773.78;;;4.63;100.00
19672;BME280;9983;51.114;13.788;2023-11-21T20:14:31;99777.28;;;4.63;100.00
19672;BME280;9983;51.114;13.788;2023-11-21T20:19:32;99789.81;;;4.51;100.00
19672;BME280;9983;51.114;13.788;2023-11-21T20:24:33;99797.97;;;4.28;100.00
19672;BME280;9983;51.114;13.788;2023-11-21T20:29:35;99812.69;;;4.52;100.00
19672;BME280;9983;51.114;13.788;2023-11-21T20:34:38;99813.63;;;4.63;100.00
19672;BME280;9983;51.114;13.788;2023-11-21T20:39:39;99826.38;;;4.48;100.00
19672;BME280;9983;51.114;13.788;2023-11-21T20:44:40;99835.53;;;4.12;100.00
19672;BME280;9983;51.114;13.788;2023-11-21T20:49:40;99837.66;;;4.29;100.00
19672;BME280;9983;51.114;13.788;2023-11-21T20:54:40;99838.19;;;4.23;100.00
19672;BME280;9983;51.114;13.788;2023-11-21T20:59:40;99851.75;;;4.09;100.00
19672;BME280;9983;51.114;13.788;2023-11-21T21:04:41;99860.16;;;4.03;100.00
19672;BME280;9983;51.114;13.788;2023-11-21T21:09:41;99859.69;;;4.09;100.00
19672;BME280;9983;51.114;13.788;2023-11-21T21:14:42;99858.47;;;4.13;100.00
19672;BME280;9983;51.114;13.788;2023-11-21T21:19:42;99861.22;;;4.11;100.00
19672;BME280;9983;51.114;13.788;2023-11-21T21:24:43;99872.25;;;3.96;100.00
19672;BME280;9983;51.114;13.788;2023-11-21T21:29:43;99878.50;;;4.17;100.00
19672;BME280;9983;51.114;13.788;2023-11-21T21:34:43;99872.75;;;3.90;100.00
19672;BME280;9983;51.114;13.788;2023-11-21T21:39:43;99893.22;;;3.99;100.00
19672;BME280;9983;51.114;13.788;2023-11-21T21:44:45;99900.22;;;4.00;100.00
19672;BME280;9983;51.114;13.788;2023-11-21T21:49:45;99902.16;;;4.09;100.00
19672;BME280;9983;51.114;13.788;2023-11-21T21:54:45;99903.34;;;4.05;100.00
19672;BME280;9983;51.114;13.788;2023-11-21T21:59:46;99915.41;;;4.09;100.00
19672;BME280;9983;51.114;13.788;2023-11-21T22:04:48;99924.34;;;4.08;100.00
19672;BME280;9983;51.114;13.788;2023-11-21T22:09:49;99936.16;;;3.81;100.00
19672;BME280;9983;51.114;13.788;2023-11-21T22:14:50;99919.50;;;4.02;100.00
19672;BME280;9983;51.114;13.788;2023-11-21T22:19:50;99925.06;;;3.99;100.00
19672;BME280;9983;51.114;13.788;2023-11-21T22:24:52;99934.00;;;3.75;100.00
19672;BME280;9983;51.114;13.788;2023-11-21T22:29:52;99934.84;;;3.76;100.00
19672;BME280;9983;51.114;13.788;2023-11-21T22:34:53;99923.59;;;3.95;100.00
19672;BME280;9983;51.114;13.788;2023-11-21T22:39:53;99943.94;;;3.27;100.00
19672;BME280;9983;51.114;13.788;2023-11-21T22:44:54;99941.22;;;3.62;100.00
19672;BME280;9983;51.114;13.788;2023-11-21T22:49:54;99955.19;;;3.53;100.00
19672;BME280;9983;51.114;13.788;2023-11-21T22:54:55;99943.16;;;3.71;100.00
19672;BME280;9983;51.114;13.788;2023-11-21T22:59:55;99932.78;;;3.68;100.00
19672;BME280;9983;51.114;13.788;2023-11-21T23:04:55;99938.91;;;3.69;100.00
19672;BME280;9983;51.114;13.788;2023-11-21T23:09:55;99946.28;;;3.54;100.00
19672;BME280;9983;51.114;13.788;2023-11-21T23:14:56;99953.63;;;3.51;100.00
19672;BME280;9983;51.114;13.788;2023-11-21T23:19:56;99958.94;;;3.62;100.00
19672;BME280;9983;51.114;13.788;2023-11-21T23:24:56;99961.47;;;3.63;100.00
19672;BME280;9983;51.114;13.788;2023-11-21T23:29:56;99967.19;;;3.24;100.00
19672;BME280;9983;51.114;13.788;2023-11-21T23:34:57;99974.81;;;3.39;100.00
19672;BME280;9983;51.114;13.788;2023-11-21T23:39:57;99975.88;;;3.37;100.00
19672;BME280;9983;51.114;13.788;2023-11-21T23:44:59;99984.59;;;3.61;100.00
19672;BME280;9983;51.114;13.788;2023-11-21T23:50:01;99985.31;;;3.63;100.00
19672;BME280;9983;51.114;13.788;2023-11-21T23:55:04;99993.84;;;3.44;100.00
